Terminal Aerodrome Forecast
Issued by NWS

Home | Current Version | Previous Version | Text Only | Print | Product List | Glossary On
Versions: 1 2 3 4 5 6 7 8 9 10 11 12 13
974
FTUS42 TJSJ 092338
TAFISX
TAF
TISX 092338Z 1000/1024 09011KT P6SM SCT025
     FM101400 09012G19KT P6SM FEW250
     FM102300 06006KT P6SM FEW025=

USA.gov is the U.S. government's official web portal to all federal, state and local government web resources and services.